sensor_id;sensor_type;location;lat;lon;timestamp;P1;durP1;ratioP1;P2;durP2;ratioP2
44169;SDS011;29836;52.286;9.576;2023-05-24T00:00:13;14.07;;;3.00;;
44169;SDS011;29836;52.286;9.576;2023-05-24T00:02:40;11.60;;;3.35;;
44169;SDS011;29836;52.286;9.576;2023-05-24T00:05:06;13.75;;;3.63;;
44169;SDS011;29836;52.286;9.576;2023-05-24T00:07:33;14.05;;;3.28;;
44169;SDS011;29836;52.286;9.576;2023-05-24T00:10:00;14.93;;;3.80;;
44169;SDS011;29836;52.286;9.576;2023-05-24T00:12:26;13.43;;;3.70;;
44169;SDS011;29836;52.286;9.576;2023-05-24T00:14:51;17.02;;;4.18;;
44169;SDS011;29836;52.286;9.576;2023-05-24T00:17:17;17.77;;;4.25;;
44169;SDS011;29836;52.286;9.576;2023-05-24T00:19:42;16.73;;;3.50;;
44169;SDS011;29836;52.286;9.576;2023-05-24T00:22:08;15.57;;;3.97;;
44169;SDS011;29836;52.286;9.576;2023-05-24T00:24:33;19.25;;;3.70;;
44169;SDS011;29836;52.286;9.576;2023-05-24T00:26:59;16.65;;;3.80;;
44169;SDS011;29836;52.286;9.576;2023-05-24T00:29:24;13.13;;;2.78;;
44169;SDS011;29836;52.286;9.576;2023-05-24T00:31:50;11.07;;;3.83;;
44169;SDS011;29836;52.286;9.576;2023-05-24T00:34:16;12.60;;;3.53;;
44169;SDS011;29836;52.286;9.576;2023-05-24T00:36:41;14.32;;;3.67;;
44169;SDS011;29836;52.286;9.576;2023-05-24T00:39:07;21.92;;;3.63;;
44169;SDS011;29836;52.286;9.576;2023-05-24T00:41:32;16.70;;;3.65;;
44169;SDS011;29836;52.286;9.576;2023-05-24T00:43:58;19.52;;;3.88;;
44169;SDS011;29836;52.286;9.576;2023-05-24T00:46:26;12.02;;;3.28;;
44169;SDS011;29836;52.286;9.576;2023-05-24T00:48:53;15.57;;;3.67;;
44169;SDS011;29836;52.286;9.576;2023-05-24T00:51:18;22.17;;;4.55;;
44169;SDS011;29836;52.286;9.576;2023-05-24T00:53:45;18.13;;;4.45;;
44169;SDS011;29836;52.286;9.576;2023-05-24T00:56:12;16.08;;;3.67;;
44169;SDS011;29836;52.286;9.576;2023-05-24T00:58:38;13.63;;;3.72;;
44169;SDS011;29836;52.286;9.576;2023-05-24T01:01:04;27.35;;;4.20;;
44169;SDS011;29836;52.286;9.576;2023-05-24T01:03:30;21.15;;;4.18;;
44169;SDS011;29836;52.286;9.576;2023-05-24T01:05:59;25.33;;;4.85;;
44169;SDS011;29836;52.286;9.576;2023-05-24T01:08:32;13.95;;;3.85;;
44169;SDS011;29836;52.286;9.576;2023-05-24T01:14:00;18.30;;;3.97;;
44169;SDS011;29836;52.286;9.576;2023-05-24T01:19:35;14.57;;;4.13;;
44169;SDS011;29836;52.286;9.576;2023-05-24T01:25:11;17.20;;;3.42;;
44169;SDS011;29836;52.286;9.576;2023-05-24T01:27:59;24.38;;;4.88;;
44169;SDS011;29836;52.286;9.576;2023-05-24T01:30:28;16.17;;;4.15;;
44169;SDS011;29836;52.286;9.576;2023-05-24T01:32:54;13.88;;;3.78;;
44169;SDS011;29836;52.286;9.576;2023-05-24T01:35:20;18.27;;;4.22;;
44169;SDS011;29836;52.286;9.576;2023-05-24T01:37:45;24.23;;;4.75;;
44169;SDS011;29836;52.286;9.576;2023-05-24T01:40:11;17.52;;;4.38;;
44169;SDS011;29836;52.286;9.576;2023-05-24T01:50:57;17.05;;;4.03;;
44169;SDS011;29836;52.286;9.576;2023-05-24T01:53:24;20.38;;;4.28;;
44169;SDS011;29836;52.286;9.576;2023-05-24T01:55:56;20.90;;;4.43;;
44169;SDS011;29836;52.286;9.576;2023-05-24T01:58:25;16.20;;;4.38;;
44169;SDS011;29836;52.286;9.576;2023-05-24T02:00:52;22.05;;;4.88;;
44169;SDS011;29836;52.286;9.576;2023-05-24T02:03:18;20.48;;;4.95;;
44169;SDS011;29836;52.286;9.576;2023-05-24T02:05:45;29.92;;;4.95;;
44169;SDS011;29836;52.286;9.576;2023-05-24T02:08:10;35.20;;;5.70;;
44169;SDS011;29836;52.286;9.576;2023-05-24T02:10:36;17.88;;;5.10;;
44169;SDS011;29836;52.286;9.576;2023-05-24T02:13:03;16.35;;;4.57;;
44169;SDS011;29836;52.286;9.576;2023-05-24T02:15:29;22.88;;;5.20;;
44169;SDS011;29836;52.286;9.576;2023-05-24T02:17:55;26.58;;;4.70;;
44169;SDS011;29836;52.286;9.576;2023-05-24T02:20:21;26.95;;;4.55;;
44169;SDS011;29836;52.286;9.576;2023-05-24T02:22:47;25.90;;;4.90;;
44169;SDS011;29836;52.286;9.576;2023-05-24T02:25:12;18.00;;;4.70;;
44169;SDS011;29836;52.286;9.576;2023-05-24T02:27:38;18.52;;;4.03;;
44169;SDS011;29836;52.286;9.576;2023-05-24T02:30:04;19.65;;;4.93;;
44169;SDS011;29836;52.286;9.576;2023-05-24T02:32:30;16.88;;;4.60;;
44169;SDS011;29836;52.286;9.576;2023-05-24T02:34:56;18.85;;;5.22;;
44169;SDS011;29836;52.286;9.576;2023-05-24T02:37:23;19.08;;;4.55;;
44169;SDS011;29836;52.286;9.576;2023-05-24T02:39:49;27.23;;;5.15;;
44169;SDS011;29836;52.286;9.576;2023-05-24T02:42:15;21.02;;;5.05;;
44169;SDS011;29836;52.286;9.576;2023-05-24T02:44:40;19.13;;;4.60;;
44169;SDS011;29836;52.286;9.576;2023-05-24T02:47:06;18.60;;;4.38;;
44169;SDS011;29836;52.286;9.576;2023-05-24T02:49:32;23.13;;;4.70;;
44169;SDS011;29836;52.286;9.576;2023-05-24T02:51:57;19.67;;;4.93;;
44169;SDS011;29836;52.286;9.576;2023-05-24T02:54:23;18.35;;;4.82;;
44169;SDS011;29836;52.286;9.576;2023-05-24T02:56:49;24.98;;;5.03;;
44169;SDS011;29836;52.286;9.576;2023-05-24T02:59:15;13.20;;;4.28;;
44169;SDS011;29836;52.286;9.576;2023-05-24T03:01:41;22.30;;;5.15;;
44169;SDS011;29836;52.286;9.576;2023-05-24T03:04:07;17.75;;;4.55;;
44169;SDS011;29836;52.286;9.576;2023-05-24T03:06:32;23.05;;;5.07;;
44169;SDS011;29836;52.286;9.576;2023-05-24T03:08:58;19.52;;;4.40;;
44169;SDS011;29836;52.286;9.576;2023-05-24T03:11:23;22.45;;;5.30;;
44169;SDS011;29836;52.286;9.576;2023-05-24T03:13:50;21.08;;;5.32;;
44169;SDS011;29836;52.286;9.576;2023-05-24T03:16:15;26.63;;;5.35;;
44169;SDS011;29836;52.286;9.576;2023-05-24T03:18:41;16.65;;;3.67;;
44169;SDS011;29836;52.286;9.576;2023-05-24T03:21:06;15.80;;;4.78;;
44169;SDS011;29836;52.286;9.576;2023-05-24T03:23:32;15.90;;;4.40;;
44169;SDS011;29836;52.286;9.576;2023-05-24T03:25:58;22.52;;;4.28;;
44169;SDS011;29836;52.286;9.576;2023-05-24T03:28:23;20.65;;;4.70;;
44169;SDS011;29836;52.286;9.576;2023-05-24T03:30:49;22.10;;;4.68;;
44169;SDS011;29836;52.286;9.576;2023-05-24T03:33:14;22.02;;;4.45;;
44169;SDS011;29836;52.286;9.576;2023-05-24T03:35:40;12.27;;;4.72;;
44169;SDS011;29836;52.286;9.576;2023-05-24T03:38:05;23.83;;;4.63;;
44169;SDS011;29836;52.286;9.576;2023-05-24T03:40:31;22.67;;;5.03;;
44169;SDS011;29836;52.286;9.576;2023-05-24T03:42:58;31.73;;;5.30;;
44169;SDS011;29836;52.286;9.576;2023-05-24T03:45:24;16.08;;;4.05;;
44169;SDS011;29836;52.286;9.576;2023-05-24T03:47:49;25.27;;;5.32;;
44169;SDS011;29836;52.286;9.576;2023-05-24T03:50:15;22.40;;;4.75;;
44169;SDS011;29836;52.286;9.576;2023-05-24T03:52:41;23.92;;;4.70;;
44169;SDS011;29836;52.286;9.576;2023-05-24T03:55:07;16.38;;;3.90;;
44169;SDS011;29836;52.286;9.576;2023-05-24T03:57:32;26.10;;;5.50;;
44169;SDS011;29836;52.286;9.576;2023-05-24T03:59:58;25.40;;;4.45;;
44169;SDS011;29836;52.286;9.576;2023-05-24T04:02:24;16.63;;;4.63;;
44169;SDS011;29836;52.286;9.576;2023-05-24T04:04:50;24.48;;;5.18;;
44169;SDS011;29836;52.286;9.576;2023-05-24T04:07:16;24.42;;;3.88;;
44169;SDS011;29836;52.286;9.576;2023-05-24T04:09:42;18.35;;;4.05;;
44169;SDS011;29836;52.286;9.576;2023-05-24T04:12:07;19.52;;;4.13;;
44169;SDS011;29836;52.286;9.576;2023-05-24T04:14:33;21.35;;;4.43;;
44169;SDS011;29836;52.286;9.576;2023-05-24T04:16:59;22.38;;;4.40;;
44169;SDS011;29836;52.286;9.576;2023-05-24T04:19:28;21.02;;;4.50;;
44169;SDS011;29836;52.286;9.576;2023-05-24T04:21:53;20.50;;;3.92;;
44169;SDS011;29836;52.286;9.576;2023-05-24T04:24:19;26.17;;;4.30;;
44169;SDS011;29836;52.286;9.576;2023-05-24T04:26:44;17.67;;;4.25;;
44169;SDS011;29836;52.286;9.576;2023-05-24T04:29:11;26.75;;;5.13;;
44169;SDS011;29836;52.286;9.576;2023-05-24T04:31:37;16.98;;;4.22;;
44169;SDS011;29836;52.286;9.576;2023-05-24T04:34:07;20.20;;;4.30;;
44169;SDS011;29836;52.286;9.576;2023-05-24T04:36:33;20.92;;;3.60;;
44169;SDS011;29836;52.286;9.576;2023-05-24T04:38:59;25.35;;;4.60;;
44169;SDS011;29836;52.286;9.576;2023-05-24T04:41:28;18.08;;;4.15;;
44169;SDS011;29836;52.286;9.576;2023-05-24T04:43:56;14.48;;;3.50;;
44169;SDS011;29836;52.286;9.576;2023-05-24T04:46:23;18.45;;;4.18;;
44169;SDS011;29836;52.286;9.576;2023-05-24T04:48:50;19.95;;;3.97;;
44169;SDS011;29836;52.286;9.576;2023-05-24T04:51:15;16.58;;;3.75;;
44169;SDS011;29836;52.286;9.576;2023-05-24T04:53:41;16.15;;;4.13;;
44169;SDS011;29836;52.286;9.576;2023-05-24T04:56:07;13.35;;;3.38;;
44169;SDS011;29836;52.286;9.576;2023-05-24T04:58:32;16.83;;;4.13;;
44169;SDS011;29836;52.286;9.576;2023-05-24T05:00:59;20.40;;;4.18;;
44169;SDS011;29836;52.286;9.576;2023-05-24T05:03:25;20.02;;;4.32;;
44169;SDS011;29836;52.286;9.576;2023-05-24T05:05:51;19.48;;;3.85;;
44169;SDS011;29836;52.286;9.576;2023-05-24T05:08:16;16.80;;;3.78;;
44169;SDS011;29836;52.286;9.576;2023-05-24T05:10:42;26.08;;;4.45;;
44169;SDS011;29836;52.286;9.576;2023-05-24T05:13:07;14.93;;;3.38;;
44169;SDS011;29836;52.286;9.576;2023-05-24T05:15:33;18.73;;;3.65;;
44169;SDS011;29836;52.286;9.576;2023-05-24T05:17:58;17.77;;;3.47;;
44169;SDS011;29836;52.286;9.576;2023-05-24T05:20:24;25.17;;;3.92;;
44169;SDS011;29836;52.286;9.576;2023-05-24T05:22:50;16.65;;;3.88;;
44169;SDS011;29836;52.286;9.576;2023-05-24T05:25:15;15.07;;;4.20;;
44169;SDS011;29836;52.286;9.576;2023-05-24T05:27:41;12.10;;;3.38;;
44169;SDS011;29836;52.286;9.576;2023-05-24T05:30:07;16.02;;;3.47;;
44169;SDS011;29836;52.286;9.576;2023-05-24T05:32:33;23.73;;;4.38;;
44169;SDS011;29836;52.286;9.576;2023-05-24T05:35:00;13.48;;;3.85;;
44169;SDS011;29836;52.286;9.576;2023-05-24T05:37:25;21.83;;;4.50;;
44169;SDS011;29836;52.286;9.576;2023-05-24T05:39:51;17.98;;;4.18;;
44169;SDS011;29836;52.286;9.576;2023-05-24T05:42:16;11.10;;;3.40;;
44169;SDS011;29836;52.286;9.576;2023-05-24T05:44:42;20.67;;;4.05;;
44169;SDS011;29836;52.286;9.576;2023-05-24T05:47:07;11.98;;;3.15;;
44169;SDS011;29836;52.286;9.576;2023-05-24T05:49:33;15.65;;;3.80;;
44169;SDS011;29836;52.286;9.576;2023-05-24T05:52:05;9.43;;;3.40;;
44169;SDS011;29836;52.286;9.576;2023-05-24T05:54:30;13.43;;;4.22;;
44169;SDS011;29836;52.286;9.576;2023-05-24T05:56:56;16.77;;;3.65;;
44169;SDS011;29836;52.286;9.576;2023-05-24T05:59:22;15.57;;;3.85;;
44169;SDS011;29836;52.286;9.576;2023-05-24T06:01:48;19.80;;;3.88;;
44169;SDS011;29836;52.286;9.576;2023-05-24T06:04:14;15.52;;;3.75;;
44169;SDS011;29836;52.286;9.576;2023-05-24T06:06:40;12.68;;;3.17;;
44169;SDS011;29836;52.286;9.576;2023-05-24T06:09:05;17.35;;;3.85;;
44169;SDS011;29836;52.286;9.576;2023-05-24T06:11:31;15.90;;;3.55;;
44169;SDS011;29836;52.286;9.576;2023-05-24T06:13:57;16.60;;;4.40;;
44169;SDS011;29836;52.286;9.576;2023-05-24T06:16:23;17.73;;;3.85;;
44169;SDS011;29836;52.286;9.576;2023-05-24T06:18:48;24.88;;;3.90;;
44169;SDS011;29836;52.286;9.576;2023-05-24T06:21:14;10.93;;;3.20;;
44169;SDS011;29836;52.286;9.576;2023-05-24T06:23:40;18.05;;;3.70;;
44169;SDS011;29836;52.286;9.576;2023-05-24T06:26:06;11.23;;;3.70;;
44169;SDS011;29836;52.286;9.576;2023-05-24T06:28:35;15.82;;;4.05;;
44169;SDS011;29836;52.286;9.576;2023-05-24T06:31:04;14.45;;;3.75;;
44169;SDS011;29836;52.286;9.576;2023-05-24T06:33:30;10.25;;;3.50;;
44169;SDS011;29836;52.286;9.576;2023-05-24T06:35:56;11.32;;;3.70;;
44169;SDS011;29836;52.286;9.576;2023-05-24T06:38:22;11.77;;;3.83;;
44169;SDS011;29836;52.286;9.576;2023-05-24T06:40:47;15.45;;;3.60;;
44169;SDS011;29836;52.286;9.576;2023-05-24T06:43:13;10.38;;;3.30;;
44169;SDS011;29836;52.286;9.576;2023-05-24T06:45:38;11.93;;;3.22;;
44169;SDS011;29836;52.286;9.576;2023-05-24T06:48:04;16.83;;;3.20;;
44169;SDS011;29836;52.286;9.576;2023-05-24T06:50:30;15.85;;;3.30;;
44169;SDS011;29836;52.286;9.576;2023-05-24T06:52:56;22.15;;;3.85;;
44169;SDS011;29836;52.286;9.576;2023-05-24T06:55:21;11.45;;;3.75;;
44169;SDS011;29836;52.286;9.576;2023-05-24T06:57:47;19.13;;;4.35;;
44169;SDS011;29836;52.286;9.576;2023-05-24T07:00:12;17.52;;;4.22;;
44169;SDS011;29836;52.286;9.576;2023-05-24T07:02:38;15.15;;;3.45;;
44169;SDS011;29836;52.286;9.576;2023-05-24T07:05:04;16.38;;;4.13;;
44169;SDS011;29836;52.286;9.576;2023-05-24T07:07:35;15.95;;;4.25;;
44169;SDS011;29836;52.286;9.576;2023-05-24T07:10:08;10.38;;;3.50;;
44169;SDS011;29836;52.286;9.576;2023-05-24T07:12:35;23.08;;;4.03;;
44169;SDS011;29836;52.286;9.576;2023-05-24T07:15:02;12.73;;;3.63;;
44169;SDS011;29836;52.286;9.576;2023-05-24T07:17:28;15.45;;;3.28;;
44169;SDS011;29836;52.286;9.576;2023-05-24T07:19:54;23.08;;;3.78;;
44169;SDS011;29836;52.286;9.576;2023-05-24T07:22:19;11.75;;;3.53;;
44169;SDS011;29836;52.286;9.576;2023-05-24T07:24:46;12.48;;;3.15;;
44169;SDS011;29836;52.286;9.576;2023-05-24T07:27:11;15.57;;;3.92;;
44169;SDS011;29836;52.286;9.576;2023-05-24T07:29:37;13.25;;;3.42;;
44169;SDS011;29836;52.286;9.576;2023-05-24T07:32:03;12.75;;;3.33;;
44169;SDS011;29836;52.286;9.576;2023-05-24T07:34:29;17.73;;;3.60;;
44169;SDS011;29836;52.286;9.576;2023-05-24T07:36:55;13.40;;;3.08;;
44169;SDS011;29836;52.286;9.576;2023-05-24T07:39:22;16.02;;;4.07;;
44169;SDS011;29836;52.286;9.576;2023-05-24T07:41:49;15.27;;;3.65;;
44169;SDS011;29836;52.286;9.576;2023-05-24T07:44:15;16.05;;;3.60;;
44169;SDS011;29836;52.286;9.576;2023-05-24T07:46:40;12.57;;;3.92;;
44169;SDS011;29836;52.286;9.576;2023-05-24T07:49:06;9.55;;;3.10;;
44169;SDS011;29836;52.286;9.576;2023-05-24T07:51:31;13.43;;;3.65;;
44169;SDS011;29836;52.286;9.576;2023-05-24T07:53:57;13.60;;;3.67;;
44169;SDS011;29836;52.286;9.576;2023-05-24T07:56:23;13.00;;;3.45;;
44169;SDS011;29836;52.286;9.576;2023-05-24T07:58:49;17.02;;;3.30;;
44169;SDS011;29836;52.286;9.576;2023-05-24T08:01:15;14.85;;;2.67;;
44169;SDS011;29836;52.286;9.576;2023-05-24T08:03:42;15.18;;;3.40;;
44169;SDS011;29836;52.286;9.576;2023-05-24T08:06:08;16.15;;;3.42;;
44169;SDS011;29836;52.286;9.576;2023-05-24T08:08:34;15.32;;;3.53;;
44169;SDS011;29836;52.286;9.576;2023-05-24T08:11:00;12.55;;;3.17;;
44169;SDS011;29836;52.286;9.576;2023-05-24T08:13:25;12.10;;;2.90;;
44169;SDS011;29836;52.286;9.576;2023-05-24T08:15:51;16.13;;;3.63;;
44169;SDS011;29836;52.286;9.576;2023-05-24T08:18:17;15.77;;;4.38;;
44169;SDS011;29836;52.286;9.576;2023-05-24T08:20:42;20.60;;;4.07;;
44169;SDS011;29836;52.286;9.576;2023-05-24T08:23:07;18.42;;;4.13;;
44169;SDS011;29836;52.286;9.576;2023-05-24T08:25:33;18.08;;;3.85;;
44169;SDS011;29836;52.286;9.576;2023-05-24T08:28:00;14.98;;;3.95;;
44169;SDS011;29836;52.286;9.576;2023-05-24T08:30:26;21.33;;;4.45;;
44169;SDS011;29836;52.286;9.576;2023-05-24T08:32:51;13.52;;;3.72;;
44169;SDS011;29836;52.286;9.576;2023-05-24T08:35:17;22.80;;;4.57;;
44169;SDS011;29836;52.286;9.576;2023-05-24T08:37:42;19.30;;;4.30;;
44169;SDS011;29836;52.286;9.576;2023-05-24T08:40:08;12.75;;;3.90;;
44169;SDS011;29836;52.286;9.576;2023-05-24T08:42:34;22.33;;;4.57;;
44169;SDS011;29836;52.286;9.576;2023-05-24T08:45:03;26.08;;;5.43;;
44169;SDS011;29836;52.286;9.576;2023-05-24T08:47:33;16.00;;;4.00;;
44169;SDS011;29836;52.286;9.576;2023-05-24T08:50:01;23.85;;;4.60;;
44169;SDS011;29836;52.286;9.576;2023-05-24T08:52:28;20.02;;;4.78;;
44169;SDS011;29836;52.286;9.576;2023-05-24T08:54:55;14.35;;;3.97;;
44169;SDS011;29836;52.286;9.576;2023-05-24T08:57:22;15.32;;;4.68;;
44169;SDS011;29836;52.286;9.576;2023-05-24T08:59:50;18.15;;;4.68;;
44169;SDS011;29836;52.286;9.576;2023-05-24T09:02:17;19.02;;;4.15;;
44169;SDS011;29836;52.286;9.576;2023-05-24T09:04:42;14.60;;;4.75;;
44169;SDS011;29836;52.286;9.576;2023-05-24T09:07:12;19.25;;;4.35;;
44169;SDS011;29836;52.286;9.576;2023-05-24T09:09:40;16.60;;;4.78;;
44169;SDS011;29836;52.286;9.576;2023-05-24T09:12:09;22.20;;;4.07;;
44169;SDS011;29836;52.286;9.576;2023-05-24T09:14:38;20.60;;;4.55;;
44169;SDS011;29836;52.286;9.576;2023-05-24T09:17:11;18.42;;;4.38;;
44169;SDS011;29836;52.286;9.576;2023-05-24T09:19:41;14.93;;;4.80;;
44169;SDS011;29836;52.286;9.576;2023-05-24T09:22:08;25.50;;;4.65;;
44169;SDS011;29836;52.286;9.576;2023-05-24T09:24:42;20.20;;;5.18;;
44169;SDS011;29836;52.286;9.576;2023-05-24T09:27:08;17.42;;;4.53;;
44169;SDS011;29836;52.286;9.576;2023-05-24T09:29:34;18.80;;;4.32;;
44169;SDS011;29836;52.286;9.576;2023-05-24T09:32:01;12.52;;;4.25;;
44169;SDS011;29836;52.286;9.576;2023-05-24T09:34:28;17.50;;;5.22;;
44169;SDS011;29836;52.286;9.576;2023-05-24T09:37:02;15.52;;;4.07;;
44169;SDS011;29836;52.286;9.576;2023-05-24T09:39:28;18.02;;;4.50;;
44169;SDS011;29836;52.286;9.576;2023-05-24T09:41:53;17.63;;;5.03;;
44169;SDS011;29836;52.286;9.576;2023-05-24T09:44:24;16.10;;;4.95;;
44169;SDS011;29836;52.286;9.576;2023-05-24T09:46:53;18.35;;;4.53;;
44169;SDS011;29836;52.286;9.576;2023-05-24T09:49:25;17.88;;;4.85;;
44169;SDS011;29836;52.286;9.576;2023-05-24T09:51:50;17.08;;;4.53;;
44169;SDS011;29836;52.286;9.576;2023-05-24T09:54:16;16.42;;;4.63;;
44169;SDS011;29836;52.286;9.576;2023-05-24T09:56:42;13.30;;;4.38;;
44169;SDS011;29836;52.286;9.576;2023-05-24T09:59:10;11.88;;;4.35;;
44169;SDS011;29836;52.286;9.576;2023-05-24T10:01:36;17.15;;;4.35;;
44169;SDS011;29836;52.286;9.576;2023-05-24T10:04:02;14.23;;;3.75;;
44169;SDS011;29836;52.286;9.576;2023-05-24T10:06:31;17.98;;;4.65;;
44169;SDS011;29836;52.286;9.576;2023-05-24T10:09:01;17.27;;;4.35;;
44169;SDS011;29836;52.286;9.576;2023-05-24T10:11:29;16.55;;;4.47;;
44169;SDS011;29836;52.286;9.576;2023-05-24T10:13:56;14.38;;;4.03;;
44169;SDS011;29836;52.286;9.576;2023-05-24T10:16:23;18.10;;;4.10;;
44169;SDS011;29836;52.286;9.576;2023-05-24T10:18:49;16.50;;;4.55;;
44169;SDS011;29836;52.286;9.576;2023-05-24T10:21:15;14.65;;;4.40;;
44169;SDS011;29836;52.286;9.576;2023-05-24T10:23:43;15.95;;;4.15;;
44169;SDS011;29836;52.286;9.576;2023-05-24T10:26:16;17.42;;;4.00;;
44169;SDS011;29836;52.286;9.576;2023-05-24T10:28:43;16.20;;;4.20;;
44169;SDS011;29836;52.286;9.576;2023-05-24T10:31:30;13.88;;;4.45;;
44169;SDS011;29836;52.286;9.576;2023-05-24T10:33:57;19.23;;;4.28;;
44169;SDS011;29836;52.286;9.576;2023-05-24T10:36:25;22.02;;;4.25;;
44169;SDS011;29836;52.286;9.576;2023-05-24T10:38:51;11.68;;;3.92;;
44169;SDS011;29836;52.286;9.576;2023-05-24T10:41:18;13.32;;;4.30;;
44169;SDS011;29836;52.286;9.576;2023-05-24T10:43:44;20.50;;;4.60;;
44169;SDS011;29836;52.286;9.576;2023-05-24T10:46:11;13.70;;;3.95;;
44169;SDS011;29836;52.286;9.576;2023-05-24T10:48:40;18.13;;;4.45;;
44169;SDS011;29836;52.286;9.576;2023-05-24T10:53:57;18.90;;;4.68;;
44169;SDS011;29836;52.286;9.576;2023-05-24T10:56:38;22.08;;;5.25;;
44169;SDS011;29836;52.286;9.576;2023-05-24T10:59:06;16.98;;;5.03;;
44169;SDS011;29836;52.286;9.576;2023-05-24T11:01:32;18.58;;;4.88;;
44169;SDS011;29836;52.286;9.576;2023-05-24T11:04:14;17.25;;;5.00;;
44169;SDS011;29836;52.286;9.576;2023-05-24T11:06:48;15.77;;;4.45;;
44169;SDS011;29836;52.286;9.576;2023-05-24T11:09:19;20.48;;;5.38;;
44169;SDS011;29836;52.286;9.576;2023-05-24T11:11:46;17.27;;;5.18;;
44169;SDS011;29836;52.286;9.576;2023-05-24T11:14:17;20.85;;;5.20;;
44169;SDS011;29836;52.286;9.576;2023-05-24T11:16:47;15.60;;;5.57;;
44169;SDS011;29836;52.286;9.576;2023-05-24T11:19:20;14.27;;;5.72;;
44169;SDS011;29836;52.286;9.576;2023-05-24T11:21:48;21.38;;;6.05;;
44169;SDS011;29836;52.286;9.576;2023-05-24T11:24:15;17.05;;;5.63;;
44169;SDS011;29836;52.286;9.576;2023-05-24T11:26:42;18.00;;;5.97;;
44169;SDS011;29836;52.286;9.576;2023-05-24T11:29:08;15.02;;;5.13;;
44169;SDS011;29836;52.286;9.576;2023-05-24T11:31:37;15.15;;;5.45;;
44169;SDS011;29836;52.286;9.576;2023-05-24T11:34:03;19.65;;;5.60;;
44169;SDS011;29836;52.286;9.576;2023-05-24T11:36:34;20.42;;;5.97;;
44169;SDS011;29836;52.286;9.576;2023-05-24T11:39:00;22.60;;;5.75;;
44169;SDS011;29836;52.286;9.576;2023-05-24T11:41:27;18.60;;;5.07;;
44169;SDS011;29836;52.286;9.576;2023-05-24T11:43:53;15.15;;;4.30;;
44169;SDS011;29836;52.286;9.576;2023-05-24T11:46:18;15.20;;;4.72;;
44169;SDS011;29836;52.286;9.576;2023-05-24T11:48:53;13.02;;;5.18;;
44169;SDS011;29836;52.286;9.576;2023-05-24T11:51:26;12.38;;;4.72;;
44169;SDS011;29836;52.286;9.576;2023-05-24T11:53:56;17.52;;;5.18;;
44169;SDS011;29836;52.286;9.576;2023-05-24T11:56:23;12.60;;;3.97;;
44169;SDS011;29836;52.286;9.576;2023-05-24T11:58:50;11.27;;;3.78;;
44169;SDS011;29836;52.286;9.576;2023-05-24T12:01:24;8.23;;;3.80;;
44169;SDS011;29836;52.286;9.576;2023-05-24T12:03:50;15.80;;;4.30;;
44169;SDS011;29836;52.286;9.576;2023-05-24T12:06:17;12.98;;;4.30;;
44169;SDS011;29836;52.286;9.576;2023-05-24T12:08:43;12.60;;;4.28;;
44169;SDS011;29836;52.286;9.576;2023-05-24T12:11:09;15.02;;;3.92;;
44169;SDS011;29836;52.286;9.576;2023-05-24T12:13:35;12.93;;;4.03;;
44169;SDS011;29836;52.286;9.576;2023-05-24T12:16:01;11.85;;;3.28;;
44169;SDS011;29836;52.286;9.576;2023-05-24T12:18:27;12.95;;;3.92;;
44169;SDS011;29836;52.286;9.576;2023-05-24T12:20:53;16.67;;;3.75;;
44169;SDS011;29836;52.286;9.576;2023-05-24T12:23:19;14.52;;;4.13;;
44169;SDS011;29836;52.286;9.576;2023-05-24T12:25:47;12.68;;;4.28;;
44169;SDS011;29836;52.286;9.576;2023-05-24T12:28:14;15.82;;;3.70;;
44169;SDS011;29836;52.286;9.576;2023-05-24T12:30:40;14.65;;;4.40;;
44169;SDS011;29836;52.286;9.576;2023-05-24T12:33:11;13.13;;;3.55;;
44169;SDS011;29836;52.286;9.576;2023-05-24T12:35:40;11.10;;;3.47;;
44169;SDS011;29836;52.286;9.576;2023-05-24T12:38:09;14.40;;;3.38;;
44169;SDS011;29836;52.286;9.576;2023-05-24T12:40:35;9.65;;;3.38;;
44169;SDS011;29836;52.286;9.576;2023-05-24T12:43:01;7.85;;;3.45;;
44169;SDS011;29836;52.286;9.576;2023-05-24T12:45:28;9.70;;;3.33;;
44169;SDS011;29836;52.286;9.576;2023-05-24T12:47:55;7.57;;;3.40;;
44169;SDS011;29836;52.286;9.576;2023-05-24T12:50:22;9.30;;;3.05;;
44169;SDS011;29836;52.286;9.576;2023-05-24T12:52:49;10.68;;;3.55;;
44169;SDS011;29836;52.286;9.576;2023-05-24T12:55:18;10.43;;;3.40;;
44169;SDS011;29836;52.286;9.576;2023-05-24T12:57:46;14.27;;;3.65;;
44169;SDS011;29836;52.286;9.576;2023-05-24T13:00:18;10.90;;;2.90;;
44169;SDS011;29836;52.286;9.576;2023-05-24T13:02:45;8.55;;;3.05;;
44169;SDS011;29836;52.286;9.576;2023-05-24T13:05:10;11.20;;;3.38;;
44169;SDS011;29836;52.286;9.576;2023-05-24T13:07:36;10.40;;;3.35;;
44169;SDS011;29836;52.286;9.576;2023-05-24T13:10:03;6.70;;;3.15;;
44169;SDS011;29836;52.286;9.576;2023-05-24T13:12:29;5.72;;;2.95;;
44169;SDS011;29836;52.286;9.576;2023-05-24T13:14:54;10.68;;;3.00;;
44169;SDS011;29836;52.286;9.576;2023-05-24T13:17:20;10.95;;;3.13;;
44169;SDS011;29836;52.286;9.576;2023-05-24T13:19:45;10.60;;;2.65;;
44169;SDS011;29836;52.286;9.576;2023-05-24T13:22:11;8.63;;;3.05;;
44169;SDS011;29836;52.286;9.576;2023-05-24T13:24:38;8.70;;;2.65;;
44169;SDS011;29836;52.286;9.576;2023-05-24T13:27:03;7.78;;;3.10;;
44169;SDS011;29836;52.286;9.576;2023-05-24T13:29:29;7.43;;;2.70;;
44169;SDS011;29836;52.286;9.576;2023-05-24T13:31:56;11.35;;;2.90;;
44169;SDS011;29836;52.286;9.576;2023-05-24T13:34:21;10.65;;;3.08;;
44169;SDS011;29836;52.286;9.576;2023-05-24T13:36:51;5.57;;;2.35;;
44169;SDS011;29836;52.286;9.576;2023-05-24T13:39:18;5.45;;;2.30;;
44169;SDS011;29836;52.286;9.576;2023-05-24T13:41:45;6.47;;;2.97;;
44169;SDS011;29836;52.286;9.576;2023-05-24T13:44:11;4.47;;;2.60;;
44169;SDS011;29836;52.286;9.576;2023-05-24T13:46:38;7.60;;;2.50;;
44169;SDS011;29836;52.286;9.576;2023-05-24T13:49:04;10.10;;;2.95;;
44169;SDS011;29836;52.286;9.576;2023-05-24T13:51:30;4.32;;;2.70;;
44169;SDS011;29836;52.286;9.576;2023-05-24T13:53:55;11.65;;;3.08;;
44169;SDS011;29836;52.286;9.576;2023-05-24T13:56:21;11.85;;;3.03;;
44169;SDS011;29836;52.286;9.576;2023-05-24T13:58:48;9.13;;;3.05;;
44169;SDS011;29836;52.286;9.576;2023-05-24T14:01:14;7.70;;;3.00;;
44169;SDS011;29836;52.286;9.576;2023-05-24T14:03:39;6.18;;;3.00;;
44169;SDS011;29836;52.286;9.576;2023-05-24T14:06:06;9.52;;;3.22;;
44169;SDS011;29836;52.286;9.576;2023-05-24T14:08:32;9.43;;;3.40;;
44169;SDS011;29836;52.286;9.576;2023-05-24T14:10:58;14.70;;;3.50;;
44169;SDS011;29836;52.286;9.576;2023-05-24T14:13:23;7.43;;;3.28;;
44169;SDS011;29836;52.286;9.576;2023-05-24T14:15:49;9.77;;;3.60;;
44169;SDS011;29836;52.286;9.576;2023-05-24T14:18:14;18.80;;;4.00;;
44169;SDS011;29836;52.286;9.576;2023-05-24T14:20:40;8.70;;;3.38;;
44169;SDS011;29836;52.286;9.576;2023-05-24T14:23:06;10.60;;;4.05;;
44169;SDS011;29836;52.286;9.576;2023-05-24T14:25:32;12.25;;;4.32;;
44169;SDS011;29836;52.286;9.576;2023-05-24T14:27:58;9.20;;;4.18;;
44169;SDS011;29836;52.286;9.576;2023-05-24T14:30:24;16.63;;;5.80;;
44169;SDS011;29836;52.286;9.576;2023-05-24T14:32:50;12.48;;;4.38;;
44169;SDS011;29836;52.286;9.576;2023-05-24T14:35:16;12.77;;;4.30;;
44169;SDS011;29836;52.286;9.576;2023-05-24T14:37:42;9.93;;;4.65;;
44169;SDS011;29836;52.286;9.576;2023-05-24T14:40:07;13.15;;;4.53;;
44169;SDS011;29836;52.286;9.576;2023-05-24T14:42:33;15.02;;;4.30;;
44169;SDS011;29836;52.286;9.576;2023-05-24T14:44:59;12.70;;;4.72;;
44169;SDS011;29836;52.286;9.576;2023-05-24T14:47:25;14.15;;;4.53;;
44169;SDS011;29836;52.286;9.576;2023-05-24T14:49:50;13.55;;;4.28;;
44169;SDS011;29836;52.286;9.576;2023-05-24T14:52:16;14.02;;;4.85;;